sensor_id;sensor_type;location;lat;lon;timestamp;P1;durP1;ratioP1;P2;durP2;ratioP2
7001;SDS011;3541;53.230;10.518;2024-01-15T00:02:26;7.10;;;3.20;;
7001;SDS011;3541;53.230;10.518;2024-01-15T00:04:52;6.67;;;2.70;;
7001;SDS011;3541;53.230;10.518;2024-01-15T00:07:19;15.30;;;3.23;;
7001;SDS011;3541;53.230;10.518;2024-01-15T00:09:45;5.77;;;2.57;;
7001;SDS011;3541;53.230;10.518;2024-01-15T00:12:12;7.63;;;2.93;;
7001;SDS011;3541;53.230;10.518;2024-01-15T00:14:38;10.73;;;2.90;;
7001;SDS011;3541;53.230;10.518;2024-01-15T00:17:05;6.80;;;3.27;;
7001;SDS011;3541;53.230;10.518;2024-01-15T00:19:33;15.17;;;3.07;;
7001;SDS011;3541;53.230;10.518;2024-01-15T00:21:59;6.20;;;2.90;;
7001;SDS011;3541;53.230;10.518;2024-01-15T00:24:26;8.40;;;2.77;;
7001;SDS011;3541;53.230;10.518;2024-01-15T00:26:52;8.97;;;2.80;;
7001;SDS011;3541;53.230;10.518;2024-01-15T00:29:20;11.37;;;2.80;;
7001;SDS011;3541;53.230;10.518;2024-01-15T00:31:47;5.30;;;2.47;;
7001;SDS011;3541;53.230;10.518;2024-01-15T00:34:13;8.53;;;2.63;;
7001;SDS011;3541;53.230;10.518;2024-01-15T00:36:41;4.83;;;2.70;;
7001;SDS011;3541;53.230;10.518;2024-01-15T00:39:08;8.77;;;2.47;;
7001;SDS011;3541;53.230;10.518;2024-01-15T00:41:35;13.63;;;2.97;;
7001;SDS011;3541;53.230;10.518;2024-01-15T00:44:02;5.23;;;2.37;;
7001;SDS011;3541;53.230;10.518;2024-01-15T00:46:29;12.00;;;3.00;;
7001;SDS011;3541;53.230;10.518;2024-01-15T00:48:55;7.63;;;2.50;;
7001;SDS011;3541;53.230;10.518;2024-01-15T00:51:22;6.27;;;3.03;;
7001;SDS011;3541;53.230;10.518;2024-01-15T00:53:50;3.67;;;2.20;;
7001;SDS011;3541;53.230;10.518;2024-01-15T00:56:16;8.93;;;3.37;;
7001;SDS011;3541;53.230;10.518;2024-01-15T00:58:43;6.57;;;2.17;;
7001;SDS011;3541;53.230;10.518;2024-01-15T01:01:09;8.80;;;2.60;;
7001;SDS011;3541;53.230;10.518;2024-01-15T01:03:36;8.10;;;2.67;;
7001;SDS011;3541;53.230;10.518;2024-01-15T01:06:03;8.80;;;3.00;;
7001;SDS011;3541;53.230;10.518;2024-01-15T01:08:29;9.00;;;2.50;;
7001;SDS011;3541;53.230;10.518;2024-01-15T01:10:57;6.40;;;2.63;;
7001;SDS011;3541;53.230;10.518;2024-01-15T01:13:24;11.33;;;3.07;;
7001;SDS011;3541;53.230;10.518;2024-01-15T01:15:50;9.17;;;2.40;;
7001;SDS011;3541;53.230;10.518;2024-01-15T01:18:17;8.87;;;2.50;;
7001;SDS011;3541;53.230;10.518;2024-01-15T01:20:43;9.03;;;2.27;;
7001;SDS011;3541;53.230;10.518;2024-01-15T01:23:10;11.07;;;3.03;;
7001;SDS011;3541;53.230;10.518;2024-01-15T01:25:36;7.70;;;2.40;;
7001;SDS011;3541;53.230;10.518;2024-01-15T01:28:04;10.40;;;2.50;;
7001;SDS011;3541;53.230;10.518;2024-01-15T01:30:31;8.30;;;2.40;;
7001;SDS011;3541;53.230;10.518;2024-01-15T01:32:58;5.73;;;2.17;;
7001;SDS011;3541;53.230;10.518;2024-01-15T01:35:24;7.90;;;2.50;;
7001;SDS011;3541;53.230;10.518;2024-01-15T01:37:51;9.67;;;2.80;;
7001;SDS011;3541;53.230;10.518;2024-01-15T01:40:17;11.10;;;2.73;;
7001;SDS011;3541;53.230;10.518;2024-01-15T01:42:44;6.07;;;2.10;;
7001;SDS011;3541;53.230;10.518;2024-01-15T01:45:12;10.50;;;2.90;;
7001;SDS011;3541;53.230;10.518;2024-01-15T01:47:39;5.77;;;2.10;;
7001;SDS011;3541;53.230;10.518;2024-01-15T01:50:06;6.50;;;2.80;;
7001;SDS011;3541;53.230;10.518;2024-01-15T01:52:33;7.77;;;2.00;;
7001;SDS011;3541;53.230;10.518;2024-01-15T01:55:01;4.57;;;2.00;;
7001;SDS011;3541;53.230;10.518;2024-01-15T01:57:29;8.03;;;2.50;;
7001;SDS011;3541;53.230;10.518;2024-01-15T01:59:57;5.70;;;2.30;;
7001;SDS011;3541;53.230;10.518;2024-01-15T02:02:26;7.17;;;2.00;;
7001;SDS011;3541;53.230;10.518;2024-01-15T02:04:52;8.47;;;2.40;;
7001;SDS011;3541;53.230;10.518;2024-01-15T02:07:19;8.87;;;2.47;;
7001;SDS011;3541;53.230;10.518;2024-01-15T02:09:46;8.07;;;2.23;;
7001;SDS011;3541;53.230;10.518;2024-01-15T02:12:13;11.83;;;2.67;;
7001;SDS011;3541;53.230;10.518;2024-01-15T02:14:40;5.30;;;2.27;;
7001;SDS011;3541;53.230;10.518;2024-01-15T02:17:06;7.07;;;2.07;;
7001;SDS011;3541;53.230;10.518;2024-01-15T02:19:34;10.83;;;2.37;;
7001;SDS011;3541;53.230;10.518;2024-01-15T02:22:01;8.77;;;3.00;;
7001;SDS011;3541;53.230;10.518;2024-01-15T02:24:29;6.37;;;2.17;;
7001;SDS011;3541;53.230;10.518;2024-01-15T02:26:55;6.57;;;2.73;;
7001;SDS011;3541;53.230;10.518;2024-01-15T02:29:22;8.93;;;2.10;;
7001;SDS011;3541;53.230;10.518;2024-01-15T02:31:49;5.97;;;2.30;;
7001;SDS011;3541;53.230;10.518;2024-01-15T02:34:15;7.13;;;2.47;;
7001;SDS011;3541;53.230;10.518;2024-01-15T02:36:42;7.07;;;2.00;;
7001;SDS011;3541;53.230;10.518;2024-01-15T02:39:08;6.50;;;2.17;;
7001;SDS011;3541;53.230;10.518;2024-01-15T02:41:36;5.73;;;1.90;;
7001;SDS011;3541;53.230;10.518;2024-01-15T02:44:03;7.50;;;2.03;;
7001;SDS011;3541;53.230;10.518;2024-01-15T02:46:30;4.53;;;2.03;;
7001;SDS011;3541;53.230;10.518;2024-01-15T02:48:56;3.63;;;2.20;;
7001;SDS011;3541;53.230;10.518;2024-01-15T02:51:23;6.57;;;2.70;;
7001;SDS011;3541;53.230;10.518;2024-01-15T02:53:49;4.80;;;2.47;;
7001;SDS011;3541;53.230;10.518;2024-01-15T02:56:16;9.47;;;2.60;;
7001;SDS011;3541;53.230;10.518;2024-01-15T02:58:44;4.90;;;2.67;;
7001;SDS011;3541;53.230;10.518;2024-01-15T03:01:10;4.37;;;2.93;;
7001;SDS011;3541;53.230;10.518;2024-01-15T03:03:37;10.27;;;3.10;;
7001;SDS011;3541;53.230;10.518;2024-01-15T03:06:05;5.30;;;2.70;;
7001;SDS011;3541;53.230;10.518;2024-01-15T03:08:32;5.80;;;2.90;;
7001;SDS011;3541;53.230;10.518;2024-01-15T03:11:00;5.20;;;2.50;;
7001;SDS011;3541;53.230;10.518;2024-01-15T03:13:26;5.97;;;2.77;;
7001;SDS011;3541;53.230;10.518;2024-01-15T03:15:54;7.57;;;2.80;;
7001;SDS011;3541;53.230;10.518;2024-01-15T03:18:21;9.80;;;2.20;;
7001;SDS011;3541;53.230;10.518;2024-01-15T03:20:47;7.23;;;2.67;;
7001;SDS011;3541;53.230;10.518;2024-01-15T03:23:14;4.30;;;2.50;;
7001;SDS011;3541;53.230;10.518;2024-01-15T03:25:41;6.13;;;2.40;;
7001;SDS011;3541;53.230;10.518;2024-01-15T03:28:07;6.97;;;2.73;;
7001;SDS011;3541;53.230;10.518;2024-01-15T03:30:34;5.87;;;2.53;;
7001;SDS011;3541;53.230;10.518;2024-01-15T03:33:02;5.37;;;2.60;;
7001;SDS011;3541;53.230;10.518;2024-01-15T03:35:28;5.20;;;2.30;;
7001;SDS011;3541;53.230;10.518;2024-01-15T03:37:55;7.07;;;2.43;;
7001;SDS011;3541;53.230;10.518;2024-01-15T03:40:22;5.50;;;2.20;;
7001;SDS011;3541;53.230;10.518;2024-01-15T03:42:49;5.97;;;2.60;;
7001;SDS011;3541;53.230;10.518;2024-01-15T03:45:15;5.00;;;2.33;;
7001;SDS011;3541;53.230;10.518;2024-01-15T03:47:42;8.40;;;3.00;;
7001;SDS011;3541;53.230;10.518;2024-01-15T03:50:10;5.17;;;2.50;;
7001;SDS011;3541;53.230;10.518;2024-01-15T03:52:36;5.27;;;2.40;;
7001;SDS011;3541;53.230;10.518;2024-01-15T03:55:04;9.13;;;2.40;;
7001;SDS011;3541;53.230;10.518;2024-01-15T03:57:31;6.97;;;2.80;;
7001;SDS011;3541;53.230;10.518;2024-01-15T03:59:57;8.07;;;3.13;;
7001;SDS011;3541;53.230;10.518;2024-01-15T04:02:24;8.67;;;2.97;;
7001;SDS011;3541;53.230;10.518;2024-01-15T04:04:50;4.83;;;2.33;;
7001;SDS011;3541;53.230;10.518;2024-01-15T04:07:19;8.70;;;3.70;;
7001;SDS011;3541;53.230;10.518;2024-01-15T04:09:46;7.63;;;2.80;;
7001;SDS011;3541;53.230;10.518;2024-01-15T04:12:12;7.70;;;2.77;;
7001;SDS011;3541;53.230;10.518;2024-01-15T04:14:39;6.57;;;2.37;;
7001;SDS011;3541;53.230;10.518;2024-01-15T04:17:05;5.53;;;2.83;;
7001;SDS011;3541;53.230;10.518;2024-01-15T04:19:32;5.07;;;2.50;;
7001;SDS011;3541;53.230;10.518;2024-01-15T04:21:58;9.77;;;2.33;;
7001;SDS011;3541;53.230;10.518;2024-01-15T04:24:26;8.80;;;2.47;;
7001;SDS011;3541;53.230;10.518;2024-01-15T04:26:53;10.80;;;2.83;;
7001;SDS011;3541;53.230;10.518;2024-01-15T04:29:19;8.37;;;2.30;;
7001;SDS011;3541;53.230;10.518;2024-01-15T04:31:46;10.00;;;2.87;;
7001;SDS011;3541;53.230;10.518;2024-01-15T04:34:12;10.20;;;2.50;;
7001;SDS011;3541;53.230;10.518;2024-01-15T04:36:39;8.57;;;2.90;;
7001;SDS011;3541;53.230;10.518;2024-01-15T04:39:06;12.30;;;2.67;;
7001;SDS011;3541;53.230;10.518;2024-01-15T04:41:34;8.63;;;2.20;;
7001;SDS011;3541;53.230;10.518;2024-01-15T04:44:01;16.10;;;3.53;;
7001;SDS011;3541;53.230;10.518;2024-01-15T04:46:27;9.00;;;2.50;;
7001;SDS011;3541;53.230;10.518;2024-01-15T04:48:54;12.23;;;2.57;;
7001;SDS011;3541;53.230;10.518;2024-01-15T04:51:20;6.53;;;2.93;;
7001;SDS011;3541;53.230;10.518;2024-01-15T04:53:47;15.03;;;3.00;;
7001;SDS011;3541;53.230;10.518;2024-01-15T04:56:13;6.97;;;2.43;;
7001;SDS011;3541;53.230;10.518;2024-01-15T04:58:41;11.67;;;3.50;;
7001;SDS011;3541;53.230;10.518;2024-01-15T05:01:08;7.40;;;2.60;;
7001;SDS011;3541;53.230;10.518;2024-01-15T05:03:35;12.17;;;3.43;;
7001;SDS011;3541;53.230;10.518;2024-01-15T05:06:01;13.73;;;3.07;;
7001;SDS011;3541;53.230;10.518;2024-01-15T05:08:28;10.43;;;2.80;;
7001;SDS011;3541;53.230;10.518;2024-01-15T05:10:55;12.53;;;3.00;;
7001;SDS011;3541;53.230;10.518;2024-01-15T05:13:21;11.60;;;3.50;;
7001;SDS011;3541;53.230;10.518;2024-01-15T05:15:49;13.00;;;3.63;;
7001;SDS011;3541;53.230;10.518;2024-01-15T05:18:16;13.47;;;3.63;;
7001;SDS011;3541;53.230;10.518;2024-01-15T05:20:43;11.37;;;4.13;;
7001;SDS011;3541;53.230;10.518;2024-01-15T05:23:09;12.83;;;3.87;;
7001;SDS011;3541;53.230;10.518;2024-01-15T05:25:36;9.00;;;2.97;;
7001;SDS011;3541;53.230;10.518;2024-01-15T05:28:03;10.90;;;2.90;;
7001;SDS011;3541;53.230;10.518;2024-01-15T05:30:30;12.70;;;3.67;;
7001;SDS011;3541;53.230;10.518;2024-01-15T05:32:58;22.87;;;3.40;;
7001;SDS011;3541;53.230;10.518;2024-01-15T05:35:25;11.67;;;3.10;;
7001;SDS011;3541;53.230;10.518;2024-01-15T05:37:51;18.73;;;4.40;;
7001;SDS011;3541;53.230;10.518;2024-01-15T05:40:18;9.17;;;3.03;;
7001;SDS011;3541;53.230;10.518;2024-01-15T05:42:44;14.13;;;3.90;;
7001;SDS011;3541;53.230;10.518;2024-01-15T05:45:11;13.70;;;3.73;;
7001;SDS011;3541;53.230;10.518;2024-01-15T05:47:38;15.50;;;3.63;;
7001;SDS011;3541;53.230;10.518;2024-01-15T05:50:06;8.47;;;4.07;;
7001;SDS011;3541;53.230;10.518;2024-01-15T05:52:33;16.10;;;4.17;;
7001;SDS011;3541;53.230;10.518;2024-01-15T05:54:59;16.87;;;4.33;;
7001;SDS011;3541;53.230;10.518;2024-01-15T05:57:26;8.67;;;3.77;;
7001;SDS011;3541;53.230;10.518;2024-01-15T05:59:52;17.17;;;4.23;;
7001;SDS011;3541;53.230;10.518;2024-01-15T06:02:19;12.53;;;3.67;;
7001;SDS011;3541;53.230;10.518;2024-01-15T06:04:46;17.10;;;3.90;;
7001;SDS011;3541;53.230;10.518;2024-01-15T06:07:14;11.27;;;3.77;;
7001;SDS011;3541;53.230;10.518;2024-01-15T06:09:40;14.03;;;4.10;;
7001;SDS011;3541;53.230;10.518;2024-01-15T06:12:07;11.87;;;3.10;;
7001;SDS011;3541;53.230;10.518;2024-01-15T06:14:34;14.57;;;4.20;;
7001;SDS011;3541;53.230;10.518;2024-01-15T06:17:00;8.03;;;3.63;;
7001;SDS011;3541;53.230;10.518;2024-01-15T06:19:27;9.90;;;3.60;;
7001;SDS011;3541;53.230;10.518;2024-01-15T06:21:54;9.47;;;3.60;;
7001;SDS011;3541;53.230;10.518;2024-01-15T06:24:22;7.43;;;3.60;;
7001;SDS011;3541;53.230;10.518;2024-01-15T06:26:48;12.97;;;3.90;;
7001;SDS011;3541;53.230;10.518;2024-01-15T06:29:15;10.10;;;3.80;;
7001;SDS011;3541;53.230;10.518;2024-01-15T06:31:41;13.23;;;3.83;;
7001;SDS011;3541;53.230;10.518;2024-01-15T06:34:08;16.43;;;4.03;;
7001;SDS011;3541;53.230;10.518;2024-01-15T06:36:35;14.23;;;4.23;;
7001;SDS011;3541;53.230;10.518;2024-01-15T06:39:01;11.13;;;3.50;;
7001;SDS011;3541;53.230;10.518;2024-01-15T06:41:29;17.47;;;3.83;;
7001;SDS011;3541;53.230;10.518;2024-01-15T06:43:56;10.30;;;3.10;;
7001;SDS011;3541;53.230;10.518;2024-01-15T06:46:23;11.93;;;3.37;;
7001;SDS011;3541;53.230;10.518;2024-01-15T06:48:49;10.63;;;3.50;;
7001;SDS011;3541;53.230;10.518;2024-01-15T06:51:16;11.50;;;3.60;;
7001;SDS011;3541;53.230;10.518;2024-01-15T06:53:43;12.97;;;3.00;;
7001;SDS011;3541;53.230;10.518;2024-01-15T06:56:09;7.97;;;3.13;;
7001;SDS011;3541;53.230;10.518;2024-01-15T06:58:37;10.33;;;3.13;;
7001;SDS011;3541;53.230;10.518;2024-01-15T07:01:04;14.77;;;3.10;;
7001;SDS011;3541;53.230;10.518;2024-01-15T07:03:31;12.33;;;3.30;;
7001;SDS011;3541;53.230;10.518;2024-01-15T07:05:57;6.63;;;2.43;;
7001;SDS011;3541;53.230;10.518;2024-01-15T07:08:24;8.03;;;2.50;;
7001;SDS011;3541;53.230;10.518;2024-01-15T07:10:51;7.73;;;2.33;;
7001;SDS011;3541;53.230;10.518;2024-01-15T07:13:17;9.50;;;2.53;;
7001;SDS011;3541;53.230;10.518;2024-01-15T07:15:45;10.20;;;2.63;;
7001;SDS011;3541;53.230;10.518;2024-01-15T07:18:12;9.97;;;3.10;;
7001;SDS011;3541;53.230;10.518;2024-01-15T07:20:38;8.43;;;2.70;;
7001;SDS011;3541;53.230;10.518;2024-01-15T07:23:05;10.13;;;2.83;;
7001;SDS011;3541;53.230;10.518;2024-01-15T07:25:31;9.43;;;2.80;;
7001;SDS011;3541;53.230;10.518;2024-01-15T07:27:58;9.90;;;2.57;;
7001;SDS011;3541;53.230;10.518;2024-01-15T07:30:25;13.10;;;2.57;;
7001;SDS011;3541;53.230;10.518;2024-01-15T07:32:53;6.60;;;2.20;;
7001;SDS011;3541;53.230;10.518;2024-01-15T07:35:19;13.23;;;2.70;;
7001;SDS011;3541;53.230;10.518;2024-01-15T07:37:47;13.30;;;2.63;;
7001;SDS011;3541;53.230;10.518;2024-01-15T07:40:13;6.80;;;2.60;;
7001;SDS011;3541;53.230;10.518;2024-01-15T07:42:40;10.50;;;3.00;;
7001;SDS011;3541;53.230;10.518;2024-01-15T07:45:07;10.73;;;2.93;;
7001;SDS011;3541;53.230;10.518;2024-01-15T07:47:34;6.23;;;2.77;;
7001;SDS011;3541;53.230;10.518;2024-01-15T07:50:02;6.40;;;2.87;;
7001;SDS011;3541;53.230;10.518;2024-01-15T07:52:29;7.00;;;2.50;;
7001;SDS011;3541;53.230;10.518;2024-01-15T07:54:56;11.80;;;2.70;;
7001;SDS011;3541;53.230;10.518;2024-01-15T07:57:24;8.33;;;2.73;;
7001;SDS011;3541;53.230;10.518;2024-01-15T07:59:51;8.00;;;2.73;;
7001;SDS011;3541;53.230;10.518;2024-01-15T08:02:17;6.77;;;2.43;;
7001;SDS011;3541;53.230;10.518;2024-01-15T08:04:44;11.23;;;2.70;;
7001;SDS011;3541;53.230;10.518;2024-01-15T08:07:12;3.47;;;2.10;;
7001;SDS011;3541;53.230;10.518;2024-01-15T08:09:38;6.23;;;2.40;;
7001;SDS011;3541;53.230;10.518;2024-01-15T08:12:05;6.73;;;2.40;;
7001;SDS011;3541;53.230;10.518;2024-01-15T08:14:32;2.47;;;1.90;;
7001;SDS011;3541;53.230;10.518;2024-01-15T08:16:59;5.80;;;2.20;;
7001;SDS011;3541;53.230;10.518;2024-01-15T08:19:26;4.00;;;2.33;;
7001;SDS011;3541;53.230;10.518;2024-01-15T08:21:52;5.83;;;1.67;;
7001;SDS011;3541;53.230;10.518;2024-01-15T08:24:20;4.67;;;2.00;;
7001;SDS011;3541;53.230;10.518;2024-01-15T08:26:47;5.23;;;2.10;;
7001;SDS011;3541;53.230;10.518;2024-01-15T08:29:13;2.57;;;1.70;;
7001;SDS011;3541;53.230;10.518;2024-01-15T08:31:41;6.73;;;2.30;;
7001;SDS011;3541;53.230;10.518;2024-01-15T08:34:07;5.33;;;1.80;;
7001;SDS011;3541;53.230;10.518;2024-01-15T08:36:34;4.27;;;1.47;;
7001;SDS011;3541;53.230;10.518;2024-01-15T08:39:01;4.87;;;1.63;;
7001;SDS011;3541;53.230;10.518;2024-01-15T08:41:30;6.10;;;1.60;;
7001;SDS011;3541;53.230;10.518;2024-01-15T08:43:57;4.77;;;1.60;;
7001;SDS011;3541;53.230;10.518;2024-01-15T08:46:23;2.90;;;1.47;;
7001;SDS011;3541;53.230;10.518;2024-01-15T08:48:50;5.67;;;1.80;;
7001;SDS011;3541;53.230;10.518;2024-01-15T08:51:17;1.63;;;1.30;;
7001;SDS011;3541;53.230;10.518;2024-01-15T08:53:44;1.63;;;1.33;;
7001;SDS011;3541;53.230;10.518;2024-01-15T08:56:10;1.30;;;1.20;;
7001;SDS011;3541;53.230;10.518;2024-01-15T08:58:39;2.87;;;1.30;;
7001;SDS011;3541;53.230;10.518;2024-01-15T09:01:05;5.43;;;1.40;;
7001;SDS011;3541;53.230;10.518;2024-01-15T09:03:32;2.57;;;1.30;;
7001;SDS011;3541;53.230;10.518;2024-01-15T09:05:59;2.20;;;1.30;;
7001;SDS011;3541;53.230;10.518;2024-01-15T09:08:26;1.50;;;1.30;;
7001;SDS011;3541;53.230;10.518;2024-01-15T09:10:53;2.07;;;1.20;;
7001;SDS011;3541;53.230;10.518;2024-01-15T09:13:19;2.27;;;1.40;;
7001;SDS011;3541;53.230;10.518;2024-01-15T09:15:47;2.30;;;1.40;;
7001;SDS011;3541;53.230;10.518;2024-01-15T09:18:14;1.90;;;1.47;;
7001;SDS011;3541;53.230;10.518;2024-01-15T09:20:40;4.13;;;1.70;;
7001;SDS011;3541;53.230;10.518;2024-01-15T09:23:07;1.10;;;1.00;;
7001;SDS011;3541;53.230;10.518;2024-01-15T09:25:33;1.40;;;1.30;;
7001;SDS011;3541;53.230;10.518;2024-01-15T09:28:00;1.83;;;1.20;;
7001;SDS011;3541;53.230;10.518;2024-01-15T09:30:27;2.37;;;1.50;;
7001;SDS011;3541;53.230;10.518;2024-01-15T09:32:55;2.93;;;1.70;;
7001;SDS011;3541;53.230;10.518;2024-01-15T09:35:22;1.87;;;1.40;;
7001;SDS011;3541;53.230;10.518;2024-01-15T09:37:48;1.57;;;1.47;;
7001;SDS011;3541;53.230;10.518;2024-01-15T09:40:15;2.80;;;1.40;;
7001;SDS011;3541;53.230;10.518;2024-01-15T09:42:42;1.57;;;1.47;;
7001;SDS011;3541;53.230;10.518;2024-01-15T09:45:09;1.73;;;1.43;;
7001;SDS011;3541;53.230;10.518;2024-01-15T09:47:35;1.70;;;1.50;;
7001;SDS011;3541;53.230;10.518;2024-01-15T09:50:04;2.90;;;1.30;;
7001;SDS011;3541;53.230;10.518;2024-01-15T09:52:31;1.60;;;1.50;;
7001;SDS011;3541;53.230;10.518;2024-01-15T09:54:59;4.27;;;1.80;;
7001;SDS011;3541;53.230;10.518;2024-01-15T09:57:30;4.80;;;2.23;;
7001;SDS011;3541;53.230;10.518;2024-01-15T09:59:57;4.93;;;2.53;;
7001;SDS011;3541;53.230;10.518;2024-01-15T10:02:28;4.03;;;2.70;;
7001;SDS011;3541;53.230;10.518;2024-01-15T10:04:55;1.50;;;1.40;;
7001;SDS011;3541;53.230;10.518;2024-01-15T10:07:23;4.53;;;1.77;;
7001;SDS011;3541;53.230;10.518;2024-01-15T10:09:53;2.73;;;1.50;;
7001;SDS011;3541;53.230;10.518;2024-01-15T10:12:20;2.10;;;1.70;;
7001;SDS011;3541;53.230;10.518;2024-01-15T10:14:47;4.40;;;1.60;;
7001;SDS011;3541;53.230;10.518;2024-01-15T10:17:14;2.60;;;1.80;;
7001;SDS011;3541;53.230;10.518;2024-01-15T10:19:42;2.50;;;1.60;;
7001;SDS011;3541;53.230;10.518;2024-01-15T10:22:08;3.57;;;1.60;;
7001;SDS011;3541;53.230;10.518;2024-01-15T10:24:37;1.60;;;1.40;;
7001;SDS011;3541;53.230;10.518;2024-01-15T10:27:05;3.03;;;1.73;;
7001;SDS011;3541;53.230;10.518;2024-01-15T10:29:32;2.53;;;1.50;;
7001;SDS011;3541;53.230;10.518;2024-01-15T10:31:59;3.60;;;1.77;;
7001;SDS011;3541;53.230;10.518;2024-01-15T10:34:26;2.77;;;1.70;;
7001;SDS011;3541;53.230;10.518;2024-01-15T10:36:53;1.83;;;1.47;;
7001;SDS011;3541;53.230;10.518;2024-01-15T10:39:21;6.20;;;1.97;;
7001;SDS011;3541;53.230;10.518;2024-01-15T10:41:49;5.63;;;2.00;;
7001;SDS011;3541;53.230;10.518;2024-01-15T10:44:16;3.53;;;2.27;;
7001;SDS011;3541;53.230;10.518;2024-01-15T10:46:43;4.83;;;2.10;;
7001;SDS011;3541;53.230;10.518;2024-01-15T10:49:11;4.97;;;2.20;;
7001;SDS011;3541;53.230;10.518;2024-01-15T10:51:38;4.07;;;2.33;;
7001;SDS011;3541;53.230;10.518;2024-01-15T10:54:05;2.87;;;2.10;;
7001;SDS011;3541;53.230;10.518;2024-01-15T10:56:36;5.47;;;2.70;;
7001;SDS011;3541;53.230;10.518;2024-01-15T10:59:05;2.97;;;2.27;;
7001;SDS011;3541;53.230;10.518;2024-01-15T11:01:33;2.80;;;2.50;;
7001;SDS011;3541;53.230;10.518;2024-01-15T11:04:00;5.93;;;2.57;;
7001;SDS011;3541;53.230;10.518;2024-01-15T11:06:27;3.23;;;2.57;;
7001;SDS011;3541;53.230;10.518;2024-01-15T11:08:54;2.70;;;2.50;;
7001;SDS011;3541;53.230;10.518;2024-01-15T11:11:21;4.33;;;3.00;;
7001;SDS011;3541;53.230;10.518;2024-01-15T11:13:48;3.23;;;2.90;;
7001;SDS011;3541;53.230;10.518;2024-01-15T11:16:18;3.20;;;2.90;;
7001;SDS011;3541;53.230;10.518;2024-01-15T11:21:31;3.10;;;2.37;;
7001;SDS011;3541;53.230;10.518;2024-01-15T11:23:58;5.20;;;2.70;;
7001;SDS011;3541;53.230;10.518;2024-01-15T11:26:29;2.80;;;2.57;;
7001;SDS011;3541;53.230;10.518;2024-01-15T11:28:56;2.77;;;2.47;;
7001;SDS011;3541;53.230;10.518;2024-01-15T11:31:27;4.20;;;2.50;;
7001;SDS011;3541;53.230;10.518;2024-01-15T11:33:54;2.83;;;2.50;;
7001;SDS011;3541;53.230;10.518;2024-01-15T11:36:21;3.77;;;2.73;;
7001;SDS011;3541;53.230;10.518;2024-01-15T11:38:47;4.97;;;3.07;;
7001;SDS011;3541;53.230;10.518;2024-01-15T11:41:14;3.80;;;2.70;;
7001;SDS011;3541;53.230;10.518;2024-01-15T11:43:41;3.43;;;2.83;;
7001;SDS011;3541;53.230;10.518;2024-01-15T11:46:09;3.60;;;3.10;;
7001;SDS011;3541;53.230;10.518;2024-01-15T11:48:42;3.60;;;2.97;;
7001;SDS011;3541;53.230;10.518;2024-01-15T11:51:10;4.00;;;3.30;;
7001;SDS011;3541;53.230;10.518;2024-01-15T11:53:40;4.67;;;3.37;;
7001;SDS011;3541;53.230;10.518;2024-01-15T11:56:12;4.23;;;3.30;;
7001;SDS011;3541;53.230;10.518;2024-01-15T11:58:41;3.60;;;3.30;;
7001;SDS011;3541;53.230;10.518;2024-01-15T12:01:08;4.40;;;3.53;;
7001;SDS011;3541;53.230;10.518;2024-01-15T12:03:36;5.10;;;3.73;;
7001;SDS011;3541;53.230;10.518;2024-01-15T12:06:06;6.10;;;3.70;;
7001;SDS011;3541;53.230;10.518;2024-01-15T12:08:33;6.10;;;4.53;;
7001;SDS011;3541;53.230;10.518;2024-01-15T12:10:59;5.03;;;3.53;;
7001;SDS011;3541;53.230;10.518;2024-01-15T12:13:27;5.67;;;2.90;;
7001;SDS011;3541;53.230;10.518;2024-01-15T12:15:54;4.23;;;3.47;;
7001;SDS011;3541;53.230;10.518;2024-01-15T12:18:20;5.47;;;3.10;;
7001;SDS011;3541;53.230;10.518;2024-01-15T12:20:47;3.20;;;2.80;;
7001;SDS011;3541;53.230;10.518;2024-01-15T12:23:15;2.73;;;2.30;;
7001;SDS011;3541;53.230;10.518;2024-01-15T12:25:42;4.70;;;3.10;;
7001;SDS011;3541;53.230;10.518;2024-01-15T12:28:09;3.60;;;2.57;;
7001;SDS011;3541;53.230;10.518;2024-01-15T12:30:36;3.70;;;2.60;;
7001;SDS011;3541;53.230;10.518;2024-01-15T12:33:03;3.60;;;2.43;;
7001;SDS011;3541;53.230;10.518;2024-01-15T12:35:30;3.20;;;2.87;;
7001;SDS011;3541;53.230;10.518;2024-01-15T12:37:57;4.37;;;2.10;;
7001;SDS011;3541;53.230;10.518;2024-01-15T12:40:26;3.00;;;2.17;;
7001;SDS011;3541;53.230;10.518;2024-01-15T12:42:53;3.00;;;1.90;;
7001;SDS011;3541;53.230;10.518;2024-01-15T12:45:20;2.03;;;1.80;;
7001;SDS011;3541;53.230;10.518;2024-01-15T12:47:47;1.73;;;1.63;;
7001;SDS011;3541;53.230;10.518;2024-01-15T12:50:15;1.90;;;1.70;;
7001;SDS011;3541;53.230;10.518;2024-01-15T12:52:41;1.60;;;1.50;;
7001;SDS011;3541;53.230;10.518;2024-01-15T12:55:08;1.83;;;1.60;;
7001;SDS011;3541;53.230;10.518;2024-01-15T12:57:37;1.70;;;1.60;;
7001;SDS011;3541;53.230;10.518;2024-01-15T13:00:04;2.17;;;1.97;;
7001;SDS011;3541;53.230;10.518;2024-01-15T13:02:32;3.57;;;1.80;;
7001;SDS011;3541;53.230;10.518;2024-01-15T13:04:59;2.60;;;2.00;;
7001;SDS011;3541;53.230;10.518;2024-01-15T13:07:27;2.93;;;2.20;;
7001;SDS011;3541;53.230;10.518;2024-01-15T13:09:53;5.30;;;2.67;;
7001;SDS011;3541;53.230;10.518;2024-01-15T13:12:20;2.40;;;2.20;;
7001;SDS011;3541;53.230;10.518;2024-01-15T13:14:48;2.50;;;2.10;;
7001;SDS011;3541;53.230;10.518;2024-01-15T13:17:15;2.00;;;1.80;;
7001;SDS011;3541;53.230;10.518;2024-01-15T13:19:41;3.87;;;2.87;;
7001;SDS011;3541;53.230;10.518;2024-01-15T13:22:08;2.63;;;2.30;;
7001;SDS011;3541;53.230;10.518;2024-01-15T13:24:35;2.30;;;2.10;;
7001;SDS011;3541;53.230;10.518;2024-01-15T13:27:02;2.47;;;1.90;;
7001;SDS011;3541;53.230;10.518;2024-01-15T13:29:29;1.80;;;1.70;;
7001;SDS011;3541;53.230;10.518;2024-01-15T13:31:57;1.83;;;1.73;;
7001;SDS011;3541;53.230;10.518;2024-01-15T13:34:24;2.23;;;1.97;;
7001;SDS011;3541;53.230;10.518;2024-01-15T13:36:50;2.87;;;2.00;;
7001;SDS011;3541;53.230;10.518;2024-01-15T13:39:18;3.10;;;1.60;;
7001;SDS011;3541;53.230;10.518;2024-01-15T13:41:45;2.10;;;1.80;;
7001;SDS011;3541;53.230;10.518;2024-01-15T13:44:12;2.57;;;1.90;;
7001;SDS011;3541;53.230;10.518;2024-01-15T13:46:39;2.63;;;1.93;;
7001;SDS011;3541;53.230;10.518;2024-01-15T13:49:07;2.50;;;1.90;;
7001;SDS011;3541;53.230;10.518;2024-01-15T13:51:34;4.10;;;1.73;;
7001;SDS011;3541;53.230;10.518;2024-01-15T13:54:01;2.57;;;1.90;;
7001;SDS011;3541;53.230;10.518;2024-01-15T13:56:29;3.63;;;2.00;;
7001;SDS011;3541;53.230;10.518;2024-01-15T13:58:57;3.20;;;2.00;;
7001;SDS011;3541;53.230;10.518;2024-01-15T14:01:24;5.03;;;2.77;;
7001;SDS011;3541;53.230;10.518;2024-01-15T14:03:51;3.47;;;2.43;;
7001;SDS011;3541;53.230;10.518;2024-01-15T14:06:19;3.00;;;2.40;;
7001;SDS011;3541;53.230;10.518;2024-01-15T14:08:46;23.97;;;11.77;;
7001;SDS011;3541;53.230;10.518;2024-01-15T14:11:13;4.87;;;2.83;;
7001;SDS011;3541;53.230;10.518;2024-01-15T14:13:39;2.93;;;2.60;;
7001;SDS011;3541;53.230;10.518;2024-01-15T14:16:06;3.63;;;2.53;;
7001;SDS011;3541;53.230;10.518;2024-01-15T14:18:32;5.40;;;2.73;;
7001;SDS011;3541;53.230;10.518;2024-01-15T14:20:59;3.33;;;1.97;;
7001;SDS011;3541;53.230;10.518;2024-01-15T14:23:27;2.10;;;1.87;;
7001;SDS011;3541;53.230;10.518;2024-01-15T14:25:53;2.17;;;2.00;;
7001;SDS011;3541;53.230;10.518;2024-01-15T14:28:20;2.33;;;1.90;;
7001;SDS011;3541;53.230;10.518;2024-01-15T14:30:48;1.63;;;1.53;;
7001;SDS011;3541;53.230;10.518;2024-01-15T14:33:14;1.87;;;1.77;;
7001;SDS011;3541;53.230;10.518;2024-01-15T14:35:41;4.07;;;1.70;;
7001;SDS011;3541;53.230;10.518;2024-01-15T14:38:07;1.50;;;1.40;;
7001;SDS011;3541;53.230;10.518;2024-01-15T14:40:35;2.77;;;2.20;;
7001;SDS011;3541;53.230;10.518;2024-01-15T14:43:02;2.30;;;2.10;;
7001;SDS011;3541;53.230;10.518;2024-01-15T14:45:29;1.80;;;1.70;;
7001;SDS011;3541;53.230;10.518;2024-01-15T14:47:55;3.07;;;1.60;;
7001;SDS011;3541;53.230;10.518;2024-01-15T14:50:23;2.30;;;2.10;;
7001;SDS011;3541;53.230;10.518;2024-01-15T14:52:49;1.80;;;1.70;;
7001;SDS011;3541;53.230;10.518;2024-01-15T14:55:16;3.27;;;1.97;;
7001;SDS011;3541;53.230;10.518;2024-01-15T14:57:44;3.20;;;2.77;;
7001;SDS011;3541;53.230;10.518;2024-01-15T15:00:11;3.40;;;2.50;;